createdAt,value
2022-07-25T00:01:13.408Z,25.00
2022-07-25T00:04:15.997Z,25.10
2022-07-25T00:07:20.532Z,25.10
2022-07-25T00:10:22.541Z,25.00
2022-07-25T00:13:24.388Z,24.90
2022-07-25T00:16:26.254Z,24.90
2022-07-25T00:19:28.255Z,24.80
2022-07-25T00:22:30.193Z,24.90
2022-07-25T00:25:32.163Z,24.80
2022-07-25T00:28:34.001Z,24.40
2022-07-25T00:31:36.200Z,24.50
2022-07-25T00:34:38.805Z,24.20
2022-07-25T00:37:40.717Z,24.00
2022-07-25T00:40:42.547Z,23.90
2022-07-25T00:43:45.562Z,24.10
2022-07-25T00:46:47.520Z,23.90
2022-07-25T00:49:49.503Z,24.10
2022-07-25T00:52:51.960Z,24.00
2022-07-25T00:55:54.594Z,24.00
2022-07-25T00:58:56.495Z,24.00
2022-07-25T01:01:58.491Z,24.00
2022-07-25T01:05:00.433Z,24.10
2022-07-25T01:08:02.860Z,24.00
2022-07-25T01:11:04.781Z,23.90
2022-07-25T01:14:07.239Z,23.70
2022-07-25T01:17:09.402Z,23.50
2022-07-25T01:20:13.655Z,23.30
2022-07-25T01:23:15.504Z,23.20
2022-07-25T01:26:17.401Z,23.40
2022-07-25T01:29:19.312Z,23.40
2022-07-25T01:32:21.175Z,23.40
2022-07-25T01:35:23.461Z,23.40
2022-07-25T01:38:25.274Z,23.20
2022-07-25T01:41:27.695Z,23.10
2022-07-25T01:44:29.576Z,22.80
2022-07-25T01:47:31.487Z,22.50
2022-07-25T01:50:33.372Z,22.60
2022-07-25T01:53:35.250Z,23.00
2022-07-25T01:56:42.788Z,22.70
2022-07-25T01:59:44.862Z,22.90
2022-07-25T02:02:46.704Z,23.10
2022-07-25T02:05:51.045Z,23.00
2022-07-25T02:08:52.899Z,23.30
2022-07-25T02:11:54.843Z,23.20
2022-07-25T02:14:56.752Z,23.20
2022-07-25T02:17:58.737Z,23.30
2022-07-25T02:21:00.670Z,23.50
2022-07-25T02:24:03.162Z,23.50
2022-07-25T02:27:05.719Z,23.40
2022-07-25T02:30:07.980Z,23.10
2022-07-25T02:33:09.894Z,22.90
2022-07-25T02:36:11.826Z,22.90
2022-07-25T02:39:13.827Z,23.00
2022-07-25T02:42:15.828Z,23.00
2022-07-25T02:45:17.751Z,22.90
2022-07-25T02:48:19.655Z,22.90
2022-07-25T02:51:21.540Z,22.80
2022-07-25T02:54:26.485Z,22.60
2022-07-25T02:57:28.349Z,22.70
2022-07-25T03:00:30.366Z,22.50
2022-07-25T03:03:32.309Z,22.50
2022-07-25T03:06:34.291Z,22.50
2022-07-25T03:09:37.101Z,22.40
2022-07-25T03:12:39.321Z,22.50
2022-07-25T03:15:41.167Z,22.60
2022-07-25T03:18:44.554Z,22.70
2022-07-25T03:21:46.813Z,22.80
2022-07-25T03:24:48.675Z,22.70
2022-07-25T03:27:50.853Z,22.40
2022-07-25T03:30:53.335Z,22.50
2022-07-25T03:33:55.227Z,22.60
2022-07-25T03:36:57.055Z,22.60
2022-07-25T03:39:58.950Z,22.40
2022-07-25T03:43:00.874Z,22.40
2022-07-25T03:46:02.787Z,22.40
2022-07-25T03:49:04.849Z,22.50
2022-07-25T03:52:06.772Z,22.50
2022-07-25T03:55:09.890Z,22.40
2022-07-25T03:58:11.750Z,22.50
2022-07-25T04:01:13.811Z,22.40
2022-07-25T04:04:16.170Z,22.50
2022-07-25T04:07:18.130Z,22.60
2022-07-25T04:10:20.007Z,22.60
2022-07-25T04:13:21.858Z,22.90
2022-07-25T04:16:23.782Z,22.50
2022-07-25T04:19:27.713Z,21.90
2022-07-25T04:22:30.161Z,21.80
2022-07-25T04:25:32.028Z,22.10
2022-07-25T04:28:34.111Z,22.30
2022-07-25T04:31:36.027Z,22.40
2022-07-25T04:34:37.868Z,22.50
2022-07-25T04:37:39.659Z,22.70
2022-07-25T04:40:41.599Z,22.80
2022-07-25T04:43:48.269Z,22.70
2022-07-25T04:46:50.707Z,22.80
2022-07-25T04:49:52.615Z,22.70
2022-07-25T04:52:54.504Z,22.50
2022-07-25T04:55:56.387Z,22.50
2022-07-25T04:59:03.146Z,22.60
2022-07-25T05:02:08.607Z,22.80
2022-07-25T05:05:20.941Z,23.00
2022-07-25T05:08:23.698Z,23.20
2022-07-25T05:11:25.526Z,23.30
2022-07-25T05:14:27.373Z,23.40
2022-07-25T05:17:29.175Z,23.50
2022-07-25T05:20:31.042Z,23.70
2022-07-25T05:23:33.157Z,24.00
2022-07-25T05:26:35.145Z,24.10
2022-07-25T05:29:37.153Z,24.30
2022-07-25T11:03:24.412Z,36.70
2022-07-25T11:06:44.207Z,36.40
2022-07-25T11:09:55.840Z,36.50
2022-07-25T11:12:57.669Z,36.10
2022-07-25T11:15:59.506Z,36.10
2022-07-25T11:19:01.303Z,36.00
2022-07-25T11:22:03.603Z,36.10
2022-07-25T11:25:12.919Z,36.10
2022-07-25T11:28:14.717Z,36.20
2022-07-25T11:31:17.234Z,36.30
2022-07-25T11:34:21.446Z,36.10
2022-07-25T11:37:23.268Z,36.00
2022-07-25T11:40:25.839Z,36.00
2022-07-25T11:43:27.784Z,36.10
2022-07-25T11:46:29.674Z,36.50
2022-07-25T11:49:31.600Z,36.50
2022-07-25T11:52:38.029Z,37.00
2022-07-25T11:55:40.266Z,36.60
2022-07-25T11:58:42.106Z,36.80
2022-07-25T12:01:43.924Z,37.10
2022-07-25T12:04:53.058Z,37.20
2022-07-25T12:07:55.127Z,37.20
2022-07-25T12:10:56.920Z,37.20
2022-07-25T12:14:05.201Z,37.10
2022-07-25T12:17:07.102Z,36.60
2022-07-25T12:20:16.808Z,36.50
2022-07-25T12:23:18.739Z,36.40
2022-07-25T12:26:20.650Z,36.60
2022-07-25T12:29:22.528Z,36.50
2022-07-25T12:32:24.484Z,36.90
2022-07-25T12:35:26.730Z,36.80
2022-07-25T12:38:28.890Z,36.60
2022-07-25T12:41:30.658Z,36.60
2022-07-25T12:44:32.513Z,36.40
2022-07-25T12:47:34.415Z,36.30
2022-07-25T12:50:36.267Z,36.20
2022-07-25T12:53:42.217Z,36.10
2022-07-25T12:56:44.549Z,36.00
2022-07-25T12:59:46.821Z,36.10
2022-07-25T13:02:49.042Z,36.10
2022-07-25T13:05:50.962Z,36.00
2022-07-25T13:08:52.980Z,35.90
2022-07-25T13:11:55.867Z,35.80
2022-07-25T13:14:58.743Z,35.60
2022-07-25T13:18:02.085Z,35.70
2022-07-25T13:21:04.134Z,35.80
2022-07-25T13:24:06.779Z,35.80
2022-07-25T13:27:08.698Z,35.70
2022-07-25T13:30:10.770Z,35.50
2022-07-25T13:33:12.777Z,35.60
2022-07-25T13:36:14.911Z,35.70
2022-07-25T13:39:17.065Z,35.70
2022-07-25T13:42:18.850Z,35.90
2022-07-25T13:45:20.633Z,35.70
2022-07-25T13:48:31.454Z,35.60
2022-07-25T13:51:33.362Z,35.50
2022-07-25T13:54:35.194Z,35.50
2022-07-25T13:57:37.216Z,35.70
2022-07-25T14:00:39.330Z,35.70
2022-07-25T14:03:41.166Z,35.70
2022-07-25T14:06:43.130Z,35.70
2022-07-25T14:09:47.239Z,35.70
2022-07-25T14:12:49.077Z,35.50
2022-07-25T14:15:50.831Z,35.40
2022-07-25T14:18:52.717Z,35.50
2022-07-25T14:21:55.004Z,35.20
2022-07-25T14:24:56.781Z,35.00
2022-07-25T14:27:59.469Z,35.10
2022-07-25T14:31:01.267Z,35.20
2022-07-25T14:34:03.258Z,35.20
2022-07-25T14:37:05.320Z,35.30
2022-07-25T14:40:07.598Z,35.50
2022-07-25T14:43:09.448Z,35.60
2022-07-25T14:46:11.455Z,35.50
2022-07-25T14:49:14.017Z,35.30
2022-07-25T14:52:16.487Z,35.30
2022-07-25T14:55:18.293Z,35.40
2022-07-25T14:58:20.124Z,35.50
2022-07-25T15:01:21.984Z,35.50
2022-07-25T15:04:24.508Z,35.20
2022-07-25T15:07:26.311Z,35.30
2022-07-25T15:10:28.108Z,35.20
2022-07-25T15:13:31.606Z,35.40
2022-07-25T15:16:34.269Z,35.50
2022-07-25T15:19:36.085Z,35.40
2022-07-25T15:22:37.991Z,35.50
2022-07-25T15:29:01.824Z,35.40
2022-07-25T15:32:03.724Z,35.40
2022-07-25T15:35:06.116Z,35.50
2022-07-25T15:38:07.927Z,35.40
2022-07-25T15:41:09.934Z,35.40
2022-07-25T15:44:11.734Z,35.40
2022-07-25T15:47:13.831Z,35.40
2022-07-25T15:50:15.703Z,35.50
2022-07-25T15:53:17.510Z,35.30
2022-07-25T15:56:19.330Z,35.10
2022-07-25T15:59:21.201Z,34.90
2022-07-25T16:02:23.461Z,35.00
2022-07-25T16:05:25.348Z,35.00
2022-07-25T16:08:27.226Z,35.00
2022-07-25T16:11:29.212Z,34.90
2022-07-25T16:14:31.047Z,34.60
2022-07-25T16:17:32.817Z,34.40
2022-07-25T16:20:34.787Z,34.20
2022-07-25T16:23:40.561Z,34.30
2022-07-25T16:26:45.479Z,34.00
2022-07-25T16:29:47.546Z,34.00
2022-07-25T16:32:49.355Z,33.90
2022-07-25T16:35:51.094Z,33.80
2022-07-25T16:38:52.967Z,33.80
2022-07-25T16:41:54.800Z,33.90
2022-07-25T16:45:03.202Z,33.50
2022-07-25T16:48:08.190Z,33.30
2022-07-25T16:51:09.966Z,33.10
2022-07-25T16:54:12.500Z,33.00
2022-07-25T16:57:14.282Z,32.80
2022-07-25T17:00:16.149Z,32.60
2022-07-25T17:03:17.894Z,32.70
2022-07-25T17:06:19.772Z,32.50
2022-07-25T17:09:21.643Z,32.40
2022-07-25T17:12:23.500Z,32.20
2022-07-25T17:15:25.455Z,32.00
2022-07-25T17:18:27.483Z,32.00
2022-07-25T17:21:29.310Z,31.80
2022-07-25T17:24:31.162Z,31.60
2022-07-25T17:27:33.019Z,31.60
2022-07-25T17:30:36.729Z,31.40
2022-07-25T17:33:38.833Z,31.50
2022-07-25T17:36:43.575Z,31.10
2022-07-25T17:39:45.474Z,31.00
2022-07-25T17:42:47.232Z,31.30
2022-07-25T17:45:49.001Z,31.00
2022-07-25T17:48:51.167Z,31.00
2022-07-25T17:51:53.144Z,31.00
2022-07-25T17:54:55.010Z,30.80
2022-07-25T17:57:56.984Z,30.80
2022-07-25T18:01:01.332Z,30.80
2022-07-25T18:04:06.963Z,30.60
2022-07-25T18:07:14.740Z,30.60
2022-07-25T18:10:17.409Z,30.50
2022-07-25T18:13:19.384Z,30.50
2022-07-25T18:16:24.336Z,30.60
2022-07-25T18:19:28.756Z,30.40
2022-07-25T18:22:30.696Z,30.40
2022-07-25T18:25:35.482Z,30.30
2022-07-25T18:28:46.119Z,30.30
2022-07-25T18:31:53.527Z,30.20
2022-07-25T18:34:58.193Z,30.20
2022-07-25T18:38:08.331Z,30.20
2022-07-25T18:41:30.646Z,30.10
2022-07-25T18:44:41.551Z,30.00
2022-07-25T18:47:43.958Z,29.90
2022-07-25T18:50:52.227Z,29.80
2022-07-25T18:53:56.810Z,29.80
2022-07-25T18:57:04.168Z,29.80
2022-07-25T19:00:16.888Z,29.70
2022-07-25T19:03:46.287Z,29.70
2022-07-25T19:07:02.903Z,29.50
2022-07-25T19:13:53.617Z,29.40
2022-07-25T19:17:02.736Z,29.40
2022-07-25T19:23:50.923Z,29.20
2022-07-25T19:27:08.665Z,29.00
2022-07-25T19:30:31.554Z,29.00
2022-07-25T19:37:39.270Z,28.80
2022-07-25T19:40:48.377Z,28.90
2022-07-25T19:43:54.767Z,29.00
2022-07-25T19:46:57.305Z,28.80
2022-07-25T19:49:59.404Z,28.80
2022-07-25T19:53:02.107Z,28.80
2022-07-25T19:56:04.454Z,28.80
2022-07-25T19:59:06.465Z,28.60
2022-07-25T20:02:08.666Z,28.50
2022-07-25T20:05:11.147Z,28.40
2022-07-25T20:08:12.972Z,28.40
2022-07-25T20:11:15.362Z,28.30
2022-07-25T20:14:17.423Z,28.30
2022-07-25T20:17:19.966Z,28.20
2022-07-25T20:20:22.039Z,28.20
2022-07-25T20:23:24.465Z,28.10
2022-07-25T20:26:26.496Z,28.00
2022-07-25T20:29:28.455Z,27.90
2022-07-25T20:32:30.549Z,28.00
2022-07-25T20:35:34.203Z,27.90
2022-07-25T20:38:36.249Z,27.90
2022-07-25T20:41:38.537Z,27.90
2022-07-25T20:44:40.756Z,28.00
2022-07-25T20:47:42.793Z,27.90
2022-07-25T20:50:44.802Z,27.70
2022-07-25T20:53:51.677Z,27.80
2022-07-25T20:56:55.149Z,27.70
2022-07-25T20:59:59.810Z,27.50
2022-07-25T21:03:01.846Z,27.50
2022-07-25T21:06:03.993Z,27.60
2022-07-25T21:09:07.673Z,27.50
2022-07-25T21:12:10.218Z,27.50
2022-07-25T21:15:12.494Z,27.50
2022-07-25T21:18:14.431Z,27.60
2022-07-25T21:21:16.954Z,27.40
2022-07-25T21:24:18.932Z,27.30
2022-07-25T21:27:23.559Z,27.40
2022-07-25T21:30:25.405Z,27.30
2022-07-25T21:33:27.710Z,27.40
2022-07-25T21:36:29.959Z,27.30
2022-07-25T21:39:32.241Z,27.20
2022-07-25T21:42:35.106Z,27.20
2022-07-25T21:45:37.314Z,27.10
2022-07-25T21:48:39.525Z,27.10
2022-07-25T21:51:46.376Z,27.10
2022-07-25T21:54:48.526Z,27.10
2022-07-25T21:57:51.498Z,27.00
2022-07-25T22:00:53.741Z,27.00
2022-07-25T22:03:55.993Z,27.00
2022-07-25T22:06:58.091Z,27.00
2022-07-25T22:09:59.961Z,27.00
2022-07-25T22:13:01.815Z,27.10
2022-07-25T22:16:03.977Z,27.10
2022-07-25T22:19:06.445Z,27.10
2022-07-25T22:22:08.684Z,27.10
2022-07-25T22:25:10.529Z,27.00
2022-07-25T22:28:14.412Z,27.10
2022-07-25T22:31:16.867Z,27.00
2022-07-25T22:34:18.757Z,27.00
2022-07-25T22:37:20.529Z,27.00
2022-07-25T22:40:32.699Z,27.00
2022-07-25T22:43:56.746Z,27.10
2022-07-25T22:46:56.392Z,27.10
2022-07-25T22:49:58.150Z,27.10
2022-07-25T22:53:00.102Z,27.00
2022-07-25T22:56:01.886Z,27.10
2022-07-25T22:59:03.860Z,27.00
2022-07-25T23:02:05.773Z,27.00
2022-07-25T23:05:08.242Z,27.00
2022-07-25T23:08:10.017Z,27.00
2022-07-25T23:11:11.819Z,27.00
2022-07-25T23:14:13.609Z,27.00
2022-07-25T23:17:15.478Z,27.00
2022-07-25T23:20:17.316Z,27.00
2022-07-25T23:23:19.150Z,27.00
2022-07-25T23:26:21.232Z,27.00
2022-07-25T23:29:23.011Z,26.90
2022-07-25T23:32:24.764Z,26.90
2022-07-25T23:35:26.604Z,26.80
2022-07-25T23:38:28.389Z,26.70
2022-07-25T23:41:30.198Z,26.70
2022-07-25T23:44:31.987Z,26.70
2022-07-25T23:47:39.048Z,26.50
2022-07-25T23:50:41.620Z,26.50
2022-07-25T23:53:43.487Z,26.40
2022-07-25T23:56:45.264Z,26.50
2022-07-25T23:59:47.090Z,26.40
